Página principal
METAR-TAF:

METAR-TAF

Aeroportos :

Aeroporto de Sevilha

Sevilha, Espanha

latitude: 37-25N, longitude: 005-54W, altura: 34 m

Observação actual do tempo

O boletim foi feito há 21 minutos, às 14:00 UTC
Vento 2 kt com direcção variável
Temperatura 21°C
Humidade 56%
Pressão 1014 hPa
Visibilidade 10 km ou mais
sem nuvens abaixo de 1500 metros e sem cumulonimbus

METAR: LEZL 151400Z VRB02KT CAVOK 21/12 Q1014 NOSIG

Hora: 15:21 (14:21 UTC)

Previsão

O boletim foi feito há 6 horas e 21 minutos, às 08:00 UTC
Previsão válida de 15 às 09 UTC a 16 às 09 UTC
Vento 6 kt de nordeste
Visibilidade 10 km ou mais
sem nuvens abaixo de 1500 metros e sem cumulonimbus

TAF: LEZL 150800Z 1509/1609 04006KT CAVOK TX22/1514Z TN13/1606Z

Observações e previsões do tempo de mais de 4000 aeroportos (mensagens METAR e TAF).

As estações disponíveis são os pontos amarelos e vermelhos sobre o mapa.

Mova o rato sobre o mapa para ver o nome da estação.

Depois clique no ponto para visualizar as observações e previsões meteorológicas.

Para alterar o mapa : clique nos botões verdes com uma cruz preta para aumentar o zoom; no botão verde com uma pitada de zoom; ou nas setas verdes para mapas adjacentes.


METAR-TAF: